Time;durP1;ratioP1;P1;durP2;ratioP2;P2;SDS_P1;SDS_P2;PMS_P1;PMS_P2;Temp;Humidity;BMP_temperature;BMP_pressure;BME280_temperature;BME280_humidity;BME280_pressure;Samples;Min_cycle;Max_cycle;Signal;HPM_P1;HPM_P2
2021/09/19 00:01:27;;;;;;;;;10.25;7.25;;;;;21.00;60.38;100655.75;4935613;28;45667;-68
2021/09/19 00:03:52;;;;;;;;;7.50;6.00;;;;;20.99;60.31;100653.16;4934921;28;46172;-68
2021/09/19 00:06:18;;;;;;;;;7.50;7.50;;;;;20.98;60.04;100646.16;4934968;28;50030;-68
2021/09/19 00:08:43;;;;;;;;;7.00;6.00;;;;;20.97;60.55;100653.19;4934420;28;50747;-68
2021/09/19 00:11:10;;;;;;;;;9.00;8.00;;;;;20.98;60.07;100648.78;4934451;28;51590;-68
2021/09/19 00:13:35;;;;;;;;;8.00;6.75;;;;;20.95;60.67;100644.44;4934828;28;46255;-68
2021/09/19 00:16:00;;;;;;;;;6.25;6.25;;;;;20.96;60.43;100634.72;4934641;28;45393;-68
2021/09/19 00:18:26;;;;;;;;;8.25;7.00;;;;;20.96;60.45;100638.22;4934630;28;53195;-68
2021/09/19 00:20:51;;;;;;;;;9.00;7.00;;;;;20.96;60.57;100632.09;4934914;28;46044;-68
2021/09/19 00:23:17;;;;;;;;;6.00;6.00;;;;;20.97;60.67;100633.84;4934135;28;60596;-68
2021/09/19 00:25:42;;;;;;;;;8.25;7.00;;;;;20.97;60.50;100634.69;4934922;28;45480;-68
2021/09/19 00:28:08;;;;;;;;;6.75;6.25;;;;;20.96;60.65;100632.94;4934832;28;45814;-68
2021/09/19 00:30:33;;;;;;;;;10.25;7.50;;;;;20.94;60.18;100634.75;4934474;28;52904;-69
2021/09/19 00:32:59;;;;;;;;;7.25;6.00;;;;;20.87;60.57;100619.94;4917199;28;47901;-68
2021/09/19 00:35:25;;;;;;;;;7.75;6.50;;;;;20.93;60.35;100630.38;4934678;28;45428;-68
2021/09/19 00:37:50;;;;;;;;;6.50;6.00;;;;;20.91;60.53;100626.91;4934772;28;45505;-69
2021/09/19 00:40:15;;;;;;;;;5.00;5.00;;;;;20.90;60.23;100619.03;4934171;28;47209;-68
2021/09/19 00:42:41;;;;;;;;;8.25;6.00;;;;;20.88;60.69;100620.81;4932743;28;57312;-68
2021/09/19 00:45:11;;;;;;;;;8.00;6.00;;;;;20.82;60.37;100613.88;4933956;28;52738;-68
2021/09/19 00:47:38;;;;;;;;;5.00;4.25;;;;;20.83;60.64;100621.78;4934715;28;45426;-68
2021/09/19 00:50:04;;;;;;;;;6.50;6.25;;;;;20.83;60.75;100618.28;4934471;28;45682;-68
2021/09/19 00:52:30;;;;;;;;;7.00;5.25;;;;;20.81;60.56;100612.13;4933922;28;46539;-68
2021/09/19 00:54:58;;;;;;;;;12.25;7.75;;;;;20.77;60.48;100607.81;4916763;28;54630;-68
2021/09/19 00:57:23;;;;;;;;;7.00;6.50;;;;;20.74;60.70;100607.88;4900959;28;45349;-68
2021/09/19 00:59:49;;;;;;;;;10.25;7.00;;;;;20.74;60.50;100610.53;4901094;28;45736;-68
2021/09/19 01:02:15;;;;;;;;;6.75;6.75;;;;;20.75;60.76;100618.41;4933984;28;46188;-68
2021/09/19 01:04:41;;;;;;;;;5.75;4.00;;;;;20.74;60.50;100616.66;4934142;28;45397;-68
2021/09/19 01:07:07;;;;;;;;;5.75;5.00;;;;;20.70;60.66;100612.34;4934448;28;45323;-68
2021/09/19 01:09:34;;;;;;;;;5.75;5.75;;;;;20.73;60.88;100614.06;4934533;28;45484;-68
2021/09/19 01:11:59;;;;;;;;;7.00;7.00;;;;;20.72;60.84;100613.19;4933558;28;45361;-68
2021/09/19 01:14:25;;;;;;;;;9.75;6.75;;;;;20.70;61.14;100608.84;4900517;28;54967;-68
2021/09/19 01:16:50;;;;;;;;;7.00;5.50;;;;;20.68;60.97;100611.50;4900632;28;51089;-68
2021/09/19 01:19:17;;;;;;;;;7.25;5.50;;;;;20.67;61.34;100613.22;4934149;28;45630;-68
2021/09/19 01:21:43;;;;;;;;;6.75;6.25;;;;;20.64;61.41;100600.09;4933729;28;46249;-68
2021/09/19 01:24:08;;;;;;;;;8.25;5.50;;;;;20.66;61.31;100603.59;4933623;28;45409;-69
2021/09/19 01:26:34;;;;;;;;;8.75;7.50;;;;;20.63;61.32;100602.78;4933681;28;45694;-68
2021/09/19 01:28:59;;;;;;;;;6.50;6.50;;;;;20.59;61.40;100609.88;4933171;28;45304;-68
2021/09/19 01:31:25;;;;;;;;;8.25;5.75;;;;;20.58;61.25;100608.16;4933739;28;45977;-68
2021/09/19 01:33:50;;;;;;;;;7.50;5.25;;;;;20.57;61.50;100602.91;4933698;28;45760;-68
2021/09/19 01:36:16;;;;;;;;;8.75;7.00;;;;;20.56;61.60;100602.00;4933719;28;46261;-69
2021/09/19 01:38:41;;;;;;;;;8.00;6.75;;;;;20.56;61.40;100607.28;4933981;28;45484;-68
2021/09/19 01:41:06;;;;;;;;;9.75;8.00;;;;;20.51;61.84;100596.84;4915861;28;58711;-68
2021/09/19 01:43:32;;;;;;;;;9.25;6.50;;;;;20.50;61.65;100591.59;4933913;28;45396;-68
2021/09/19 01:46:01;;;;;;;;;9.00;7.50;;;;;20.53;62.09;100599.44;4933371;28;46247;-68
2021/09/19 01:48:31;;;;;;;;;8.25;8.25;;;;;20.49;61.88;100595.13;4933565;28;45320;-68
2021/09/19 01:50:56;;;;;;;;;6.00;6.00;;;;;20.48;62.45;100598.66;4916615;28;46210;-68
2021/09/19 01:53:21;;;;;;;;;9.00;6.50;;;;;20.47;62.38;100599.53;4933348;28;50426;-68
2021/09/19 01:55:47;;;;;;;;;7.75;7.00;;;;;20.44;62.33;100603.13;4933829;28;58950;-68
2021/09/19 01:58:12;;;;;;;;;8.00;8.00;;;;;20.46;62.13;100597.81;4935108;28;49493;-68
2021/09/19 02:00:38;;;;;;;;;10.00;8.00;;;;;20.44;62.38;100596.97;4935068;28;57544;-68
2021/09/19 02:03:03;;;;;;;;;7.00;7.00;;;;;20.44;62.19;100600.50;4935560;28;45695;-68
2021/09/19 02:05:28;;;;;;;;;9.00;7.50;;;;;20.43;61.93;100601.41;4934187;28;56278;-68
2021/09/19 02:07:54;;;;;;;;;8.25;6.75;;;;;20.41;62.44;100595.25;4933166;28;45648;-68
2021/09/19 02:10:19;;;;;;;;;8.00;6.50;;;;;20.40;62.48;100590.91;4932560;28;58908;-68
2021/09/19 02:12:44;;;;;;;;;6.25;6.25;;;;;20.38;62.41;100587.41;4932954;28;55914;-68
2021/09/19 02:15:11;;;;;;;;;10.25;8.75;;;;;20.37;62.58;100584.78;4932733;28;51466;-68
2021/09/19 02:17:36;;;;;;;;;7.75;7.50;;;;;20.36;62.40;100589.22;4933353;28;45371;-68
2021/09/19 02:20:03;;;;;;;;;9.75;7.75;;;;;20.38;62.75;100597.09;4932668;28;46333;-68
2021/09/19 02:22:28;;;;;;;;;9.00;7.00;;;;;20.36;62.49;100583.03;4932182;28;45429;-68
2021/09/19 02:24:54;;;;;;;;;8.00;8.00;;;;;20.36;62.24;100586.56;4932615;28;45725;-68
2021/09/19 02:27:20;;;;;;;;;8.50;6.75;;;;;20.36;62.62;100588.31;4933380;28;45412;-68
2021/09/19 02:29:47;;;;;;;;;8.75;8.75;;;;;20.34;62.86;100583.06;4916051;28;46292;-68
2021/09/19 02:32:13;;;;;;;;;11.50;9.00;;;;;20.32;63.03;100585.75;4932806;28;45530;-68
2021/09/19 02:34:38;;;;;;;;;9.75;8.25;;;;;20.32;63.23;100582.25;4932430;28;55347;-68
2021/09/19 02:37:03;;;;;;;;;10.00;9.75;;;;;20.29;63.25;100577.91;4933086;28;45306;-68
2021/09/19 02:39:29;;;;;;;;;6.75;6.75;;;;;20.30;62.91;100576.13;4932719;28;46171;-68
2021/09/19 02:41:54;;;;;;;;;12.00;8.00;;;;;20.29;62.72;100571.72;4932474;28;55203;-68
2021/09/19 02:44:19;;;;;;;;;7.75;7.75;;;;;20.27;63.49;100578.81;4932019;28;54311;-68
2021/09/19 02:46:45;;;;;;;;;7.75;6.50;;;;;20.27;63.29;100573.53;4932800;28;51601;-68
2021/09/19 02:49:10;;;;;;;;;9.00;9.00;;;;;20.26;63.08;100562.09;4932024;28;55573;-68
2021/09/19 02:51:36;;;;;;;;;9.75;9.00;;;;;20.23;63.58;100567.44;4932163;28;51835;-69
2021/09/19 02:54:01;;;;;;;;;9.50;9.50;;;;;20.12;63.49;100543.88;4932188;28;54299;-68
2021/09/19 02:56:26;;;;;;;;;10.50;10.00;;;;;20.19;63.32;100563.13;4932046;28;46192;-68
2021/09/19 02:58:52;;;;;;;;;10.00;9.00;;;;;20.17;63.26;100552.59;4932657;28;45715;-68
2021/09/19 03:01:17;;;;;;;;;10.75;10.00;;;;;20.14;62.97;100551.75;4932122;28;57004;-68
2021/09/19 03:03:43;;;;;;;;;12.50;11.00;;;;;20.10;63.31;100555.34;4932318;28;45400;-68
2021/09/19 03:06:08;;;;;;;;;12.25;9.50;;;;;20.10;63.55;100553.59;4932902;28;45472;-68
2021/09/19 03:08:33;;;;;;;;;10.25;10.00;;;;;20.10;63.94;100555.34;4931822;28;57009;-68
2021/09/19 03:10:59;;;;;;;;;12.50;10.00;;;;;20.10;63.76;100550.97;4931765;28;58907;-68
2021/09/19 03:13:24;;;;;;;;;10.25;10.25;;;;;20.10;63.75;100552.72;4932517;28;45701;-68
2021/09/19 03:15:50;;;;;;;;;12.50;10.00;;;;;20.07;63.49;100547.50;4915361;28;45688;-68
2021/09/19 03:18:15;;;;;;;;;9.00;9.00;;;;;20.04;63.40;100542.28;4932197;28;46237;-68
2021/09/19 03:20:41;;;;;;;;;11.75;10.25;;;;;20.02;63.40;100546.72;4931990;28;50683;-68
2021/09/19 03:23:06;;;;;;;;;9.75;9.75;;;;;20.00;63.68;100544.09;4932416;28;45521;-68
2021/09/19 03:25:31;;;;;;;;;11.00;11.00;;;;;19.98;63.60;100546.78;4931947;28;48426;-68
2021/09/19 03:27:58;;;;;;;;;11.25;11.25;;;;;19.99;63.35;100548.53;4931571;28;59168;-68
2021/09/19 03:30:23;;;;;;;;;15.00;9.75;;;;;19.98;63.65;100557.31;4915313;28;45621;-68
2021/09/19 03:32:49;;;;;;;;;7.00;7.00;;;;;19.97;63.72;100545.03;4932054;28;45757;-68
2021/09/19 03:35:14;;;;;;;;;10.75;10.75;;;;;19.97;63.45;100544.16;4934362;28;45753;-68
2021/09/19 03:37:40;;;;;;;;;12.00;10.75;;;;;19.97;63.60;100541.53;4935380;28;45459;-68
2021/09/19 03:40:07;;;;;;;;;12.50;8.75;;;;;19.97;63.89;100542.38;4935429;28;45498;-68
2021/09/19 03:42:32;;;;;;;;;14.25;13.00;;;;;19.97;63.89;100545.03;4935806;28;45348;-68
2021/09/19 03:44:57;;;;;;;;;11.75;10.75;;;;;19.97;63.60;100538.88;4935090;28;46489;-68
2021/09/19 03:47:23;;;;;;;;;10.50;9.50;;;;;19.96;63.91;100543.31;4934817;28;57195;-68
2021/09/19 03:49:48;;;;;;;;;12.75;11.25;;;;;19.92;64.13;100541.63;4934961;28;58333;-68
2021/09/19 03:52:14;;;;;;;;;12.75;11.50;;;;;19.92;64.11;100551.28;4934769;28;51422;-68
2021/09/19 03:54:39;;;;;;;;;10.25;9.00;;;;;19.88;63.95;100546.94;4935294;28;45708;-69
2021/09/19 03:57:04;;;;;;;;;14.75;13.50;;;;;19.92;64.35;100551.28;4934564;28;45934;-68
2021/09/19 03:59:30;;;;;;;;;10.50;10.50;;;;;19.92;64.41;100561.84;4917699;28;52654;-70
2021/09/19 04:01:55;;;;;;;;;13.25;11.25;;;;;19.91;64.61;100554.84;4935186;28;46865;-68
2021/09/19 04:04:21;;;;;;;;;14.75;13.50;;;;;19.91;64.18;100553.06;4934743;28;48653;-68
2021/09/19 04:06:46;;;;;;;;;13.50;12.00;;;;;19.91;63.92;100554.84;4934639;28;59534;-68
2021/09/19 04:09:11;;;;;;;;;13.25;11.50;;;;;19.89;63.94;100551.34;4934276;28;59927;-68
2021/09/19 04:11:37;;;;;;;;;14.50;9.00;;;;;19.85;64.12;100549.66;4934910;28;45526;-68
2021/09/19 04:14:02;;;;;;;;;16.50;11.00;;;;;19.82;63.73;100550.56;4934999;28;45861;-69
2021/09/19 04:16:28;;;;;;;;;9.75;9.75;;;;;19.80;64.17;100549.75;4935012;28;45910;-69
2021/09/19 04:18:53;;;;;;;;;13.00;12.25;;;;;19.77;64.45;100555.00;4934574;28;56733;-69
2021/09/19 04:21:18;;;;;;;;;13.50;11.75;;;;;19.74;64.67;100555.06;4934762;28;45383;-69
2021/09/19 04:23:44;;;;;;;;;12.25;12.25;;;;;19.73;64.01;100559.47;4934574;28;47702;-69
2021/09/19 04:26:09;;;;;;;;;15.75;9.25;;;;;19.72;63.86;100555.09;4934348;28;48557;-69
2021/09/19 04:28:34;;;;;;;;;15.25;12.50;;;;;19.72;63.86;100551.59;4933846;28;56429;-69
2021/09/19 04:31:00;;;;;;;;;10.00;9.75;;;;;19.70;63.87;100562.19;4934495;28;52396;-69
2021/09/19 04:33:25;;;;;;;;;13.25;10.25;;;;;19.69;62.99;100564.81;4934481;28;48281;-69
2021/09/19 04:35:51;;;;;;;;;13.25;11.00;;;;;19.69;63.11;100564.81;4934493;28;45752;-69
2021/09/19 04:38:16;;;;;;;;;14.50;12.75;;;;;19.65;62.51;100569.28;4935637;28;54168;-69
2021/09/19 04:40:41;;;;;;;;;10.50;9.00;;;;;19.64;62.66;100568.41;4936072;28;55021;-69
2021/09/19 04:43:11;;;;;;;;;13.00;12.75;;;;;19.62;62.40;100575.47;4936809;28;45543;-69
2021/09/19 04:45:37;;;;;;;;;10.50;10.25;;;;;19.60;61.56;100582.53;4935819;28;46505;-69
2021/09/19 04:48:03;;;;;;;;;13.25;11.25;;;;;19.59;61.07;100583.44;4936478;28;45329;-69
2021/09/19 04:50:28;;;;;;;;;13.50;10.25;;;;;19.56;60.98;100578.19;4936498;28;45409;-69
2021/09/19 04:52:54;;;;;;;;;10.75;9.50;;;;;19.56;61.12;100582.59;4936472;28;45386;-69
2021/09/19 04:55:19;;;;;;;;;13.00;11.00;;;;;19.54;60.90;100580.00;4935833;28;60876;-69
2021/09/19 04:57:45;;;;;;;;;12.00;12.00;;;;;19.54;60.11;100580.00;4936057;28;45406;-69
2021/09/19 05:00:10;;;;;;;;;10.75;10.75;;;;;19.52;60.60;100581.78;4936017;28;53032;-69
2021/09/19 05:02:36;;;;;;;;;11.50;11.25;;;;;19.50;59.86;100583.56;4936328;28;45812;-69
2021/09/19 05:05:01;;;;;;;;;14.00;11.00;;;;;19.47;60.29;100573.09;4934689;28;59040;-69
2021/09/19 05:07:27;;;;;;;;;13.00;11.50;;;;;19.44;59.92;100570.47;4935814;28;60356;-69
2021/09/19 05:09:52;;;;;;;;;11.75;10.25;;;;;19.41;59.86;100574.06;4936496;28;45654;-69
2021/09/19 05:12:17;;;;;;;;;12.75;12.50;;;;;19.38;59.81;100571.44;4936316;28;48045;-69
2021/09/19 05:14:43;;;;;;;;;13.00;11.50;;;;;19.35;59.92;100573.28;4935960;28;45835;-69
2021/09/19 05:17:08;;;;;;;;;12.25;10.25;;;;;19.33;59.69;100574.16;4936190;28;45839;-68
2021/09/19 05:19:34;;;;;;;;;13.75;12.50;;;;;19.30;59.76;100568.03;4936082;28;45994;-69
2021/09/19 05:21:59;;;;;;;;;13.00;11.75;;;;;19.29;59.89;100572.47;4936111;28;48692;-69
2021/09/19 05:24:24;;;;;;;;;14.50;12.75;;;;;19.29;59.96;100582.13;4935723;28;61070;-69
2021/09/19 05:26:50;;;;;;;;;14.75;11.25;;;;;19.27;59.67;100579.50;4935210;28;59811;-69
2021/09/19 05:29:15;;;;;;;;;16.25;12.00;;;;;19.25;59.72;100578.66;4935662;28;55303;-68
2021/09/19 05:31:41;;;;;;;;;10.75;10.00;;;;;19.23;59.38;100577.78;4936350;28;45652;-69
2021/09/19 05:34:06;;;;;;;;;14.00;11.25;;;;;19.23;59.53;100585.69;4935485;28;56458;-69
2021/09/19 05:36:32;;;;;;;;;14.75;11.75;;;;;19.22;59.42;100585.72;4935683;28;54696;-69
2021/09/19 05:38:57;;;;;;;;;12.75;10.75;;;;;19.20;59.28;100588.38;4918866;28;45819;-69
2021/09/19 05:41:22;;;;;;;;;12.25;11.25;;;;;19.21;59.50;100586.66;4936117;28;45353;-69
2021/09/19 05:43:48;;;;;;;;;13.25;11.50;;;;;19.18;59.33;100589.28;4935190;28;59970;-68
2021/09/19 05:46:16;;;;;;;;;14.50;13.00;;;;;19.17;59.65;100600.75;4935775;28;45461;-68
2021/09/19 05:48:41;;;;;;;;;14.75;11.50;;;;;19.13;59.51;100597.28;4935532;28;45382;-68
2021/09/19 05:51:06;;;;;;;;;15.75;13.75;;;;;19.13;58.95;100606.03;4935764;28;45329;-69
2021/09/19 05:53:32;;;;;;;;;12.25;10.00;;;;;19.13;59.78;100607.81;4935461;28;47093;-69
2021/09/19 05:55:57;;;;;;;;;13.00;13.00;;;;;19.15;59.22;100613.91;4934912;28;59952;-69
2021/09/19 05:58:23;;;;;;;;;15.50;15.00;;;;;19.15;59.11;100619.19;4934870;28;53960;-69
2021/09/19 06:00:48;;;;;;;;;15.00;9.50;;;;;19.17;58.84;100613.94;4935841;28;45321;-69
2021/09/19 06:03:13;;;;;;;;;14.00;13.00;;;;;19.14;58.80;100610.44;4934724;28;61745;-69
2021/09/19 06:05:39;;;;;;;;;17.00;12.50;;;;;19.11;59.35;100609.59;4935004;28;54321;-68
2021/09/19 06:08:04;;;;;;;;;11.75;11.75;;;;;19.14;59.28;100614.84;4935453;28;45514;-69
2021/09/19 06:10:30;;;;;;;;;18.50;14.50;;;;;19.15;58.98;100619.19;4935292;28;49979;-69
2021/09/19 06:12:55;;;;;;;;;15.25;12.00;;;;;19.15;59.42;100621.81;4935211;28;45637;-69
2021/09/19 06:15:20;;;;;;;;;12.50;12.00;;;;;19.17;58.77;100620.06;4935525;28;45752;-69
2021/09/19 06:17:46;;;;;;;;;14.00;11.75;;;;;19.16;58.98;100623.56;4917945;28;51281;-69
2021/09/19 06:20:11;;;;;;;;;13.50;12.00;;;;;19.16;59.38;100613.03;4935307;28;45700;-68
2021/09/19 06:22:37;;;;;;;;;11.00;11.00;;;;;19.17;58.83;100617.41;4935181;28;46951;-68
2021/09/19 06:25:02;;;;;;;;;14.50;12.00;;;;;19.15;58.50;100621.81;4934827;28;56501;-69
2021/09/19 06:27:28;;;;;;;;;15.50;11.25;;;;;19.14;58.46;100628.88;4935045;28;45329;-69
2021/09/19 06:29:53;;;;;;;;;17.75;15.25;;;;;19.16;58.73;100628.84;4935006;28;46843;-69
2021/09/19 06:32:19;;;;;;;;;12.25;12.25;;;;;19.15;58.15;100630.63;4934957;28;45940;-69
2021/09/19 06:34:44;;;;;;;;;15.25;13.25;;;;;19.18;58.03;100627.06;4935005;28;45679;-69
2021/09/19 06:37:09;;;;;;;;;15.50;11.50;;;;;19.20;58.14;100622.66;4935152;28;45950;-69
2021/09/19 06:39:35;;;;;;;;;12.50;12.25;;;;;19.24;57.89;100626.13;4935135;28;45731;-68
2021/09/19 06:42:00;;;;;;;;;13.50;12.50;;;;;19.27;57.97;100629.56;4934498;28;52277;-69
2021/09/19 06:44:26;;;;;;;;;12.50;11.50;;;;;19.33;58.42;100632.13;4934268;28;57810;-69
2021/09/19 06:46:53;;;;;;;;;14.25;14.00;;;;;19.41;57.99;100623.25;4935131;28;45642;-69
2021/09/19 06:49:19;;;;;;;;;14.50;11.75;;;;;19.50;57.67;100625.75;4918114;28;45699;-69
2021/09/19 06:51:44;;;;;;;;;13.25;12.75;;;;;19.58;57.77;100626.50;4934300;28;46050;-69
2021/09/19 06:54:10;;;;;;;;;16.75;13.50;;;;;19.66;57.86;100643.09;4934211;28;58952;-69
2021/09/19 06:56:36;;;;;;;;;16.00;15.00;;;;;19.77;57.09;100634.13;4934140;28;56834;-69
2021/09/19 06:59:01;;;;;;;;;14.75;12.00;;;;;19.84;56.87;100635.84;4934906;28;45869;-69
2021/09/19 07:01:27;;;;;;;;;12.00;10.50;;;;;19.83;56.74;100632.31;4934386;28;54825;-69
2021/09/19 07:03:52;;;;;;;;;12.25;11.50;;;;;19.95;56.55;100635.66;4933857;28;59067;-69
2021/09/19 07:06:17;;;;;;;;;14.00;14.00;;;;;20.01;56.61;100651.38;4934327;28;53716;-69
2021/09/19 07:08:44;;;;;;;;;13.50;11.75;;;;;20.07;56.62;100645.13;4916830;28;45362;-69
2021/09/19 07:11:09;;;;;;;;;10.50;10.50;;;;;20.14;56.29;100652.94;4934259;28;46221;-68
2021/09/19 07:13:34;;;;;;;;;12.00;12.00;;;;;20.20;55.97;100644.03;4934323;28;49562;-69
2021/09/19 07:16:00;;;;;;;;;11.75;10.75;;;;;20.28;55.91;100644.78;4934245;28;49139;-68
2021/09/19 07:18:25;;;;;;;;;12.25;12.25;;;;;20.39;55.92;100649.88;4934306;28;48601;-69
2021/09/19 07:20:53;;;;;;;;;12.00;11.25;;;;;20.51;55.48;100654.91;4933670;28;58966;-68
2021/09/19 07:23:18;;;;;;;;;12.00;11.75;;;;;20.64;55.14;100657.34;4934382;28;45398;-69
2021/09/19 07:25:44;;;;;;;;;14.50;12.75;;;;;20.77;54.89;100665.91;4934380;28;45516;-69
2021/09/19 07:28:09;;;;;;;;;13.25;10.75;;;;;20.88;54.75;100666.56;4934073;28;45452;-69
2021/09/19 07:30:35;;;;;;;;;14.75;11.50;;;;;21.05;54.50;100675.94;4934144;28;46969;-69
2021/09/19 07:33:01;;;;;;;;;14.50;13.00;;;;;21.13;54.05;100680.19;4934257;28;45404;-69
2021/09/19 07:35:26;;;;;;;;;16.00;12.00;;;;;21.18;53.89;100672.16;4917152;28;45449;-69
2021/09/19 07:37:51;;;;;;;;;9.00;9.00;;;;;21.22;53.69;100673.81;4934358;28;45479;-68
2021/09/19 07:40:17;;;;;;;;;12.25;11.75;;;;;21.26;53.51;100680.78;4933930;28;46511;-69
2021/09/19 07:42:43;;;;;;;;;11.25;11.25;;;;;21.33;53.59;100687.69;4934094;28;45436;-69
2021/09/19 07:45:09;;;;;;;;;13.25;11.50;;;;;21.60;53.17;100685.38;4934020;28;46205;-69
2021/09/19 07:47:34;;;;;;;;;12.50;11.50;;;;;22.34;52.92;100691.59;4934352;28;45608;-68
2021/09/19 07:50:00;;;;;;;;;12.00;11.50;;;;;23.74;51.89;100687.72;4900637;28;55542;-69
2021/09/19 07:52:26;;;;;;;;;16.50;14.50;;;;;24.78;49.22;100682.53;4933823;28;45519;-69
2021/09/19 07:54:54;;;;;;;;;11.00;10.00;;;;;25.45;48.35;100695.16;4934104;28;45708;-69
2021/09/19 07:57:23;;;;;;;;;13.50;12.00;;;;;26.07;47.27;100706.06;4933871;28;45463;-69
2021/09/19 07:59:49;;;;;;;;;12.25;11.75;;;;;26.49;46.07;100706.97;4933884;28;46214;-69
2021/09/19 08:02:14;;;;;;;;;15.00;11.00;;;;;26.64;44.68;100709.00;4932518;28;45770;-69
2021/09/19 08:04:40;;;;;;;;;12.50;10.75;;;;;26.39;44.72;100707.41;4934099;28;45751;-69
2021/09/19 08:07:05;;;;;;;;;14.25;11.50;;;;;26.10;44.53;100707.72;4934289;28;45396;-69
2021/09/19 08:09:31;;;;;;;;;13.00;11.25;;;;;26.18;44.25;100709.13;4933280;28;55957;-69
2021/09/19 08:11:56;;;;;;;;;13.50;11.75;;;;;26.59;44.11;100711.00;4933411;28;60294;-69
2021/09/19 08:14:21;;;;;;;;;11.75;10.00;;;;;26.81;44.03;100704.75;4933396;28;50556;-69
2021/09/19 08:16:47;;;;;;;;;12.50;11.00;;;;;26.85;42.96;100712.56;4933773;28;45421;-69
2021/09/19 08:19:12;;;;;;;;;14.00;11.25;;;;;27.16;42.84;100718.31;4933755;28;45912;-69
2021/09/19 08:21:38;;;;;;;;;13.00;10.75;;;;;28.09;42.63;100718.41;4934524;28;45773;-69
2021/09/19 08:24:05;;;;;;;;;11.50;11.50;;;;;29.39;41.36;100724.25;4937363;28;45730;-69
2021/09/19 08:26:30;;;;;;;;;11.50;11.50;;;;;30.33;39.42;100735.03;4940007;28;45480;-69
2021/09/19 08:28:56;;;;;;;;;12.25;11.00;;;;;29.98;38.32;100734.41;4946144;28;56866;-68
2021/09/19 08:31:22;;;;;;;;;16.75;11.50;;;;;29.09;38.29;100728.47;4944448;28;45826;-68
2021/09/19 08:33:47;;;;;;;;;12.75;11.75;;;;;28.35;38.97;100729.59;4954523;28;45667;-68
2021/09/19 08:36:13;;;;;;;;;12.00;10.25;;;;;27.70;39.47;100732.72;4956196;28;45312;-68
2021/09/19 08:38:38;;;;;;;;;11.75;11.75;;;;;27.13;39.78;100732.66;4938628;28;45826;-68
2021/09/19 08:41:03;;;;;;;;;12.00;10.25;;;;;26.58;40.74;100738.56;4938365;28;49486;-68
2021/09/19 08:43:29;;;;;;;;;13.25;11.50;;;;;26.26;41.03;100750.59;4955704;28;52748;-68
2021/09/19 08:45:54;;;;;;;;;11.00;10.00;;;;;25.95;41.22;100757.97;4954591;28;49316;-69
2021/09/19 08:48:20;;;;;;;;;13.75;11.50;;;;;25.57;41.56;100752.38;4955595;28;46575;-68
2021/09/19 08:50:47;;;;;;;;;9.75;9.25;;;;;25.29;42.86;100752.50;4955990;28;45576;-68
2021/09/19 08:53:12;;;;;;;;;12.50;12.00;;;;;24.96;42.90;100739.50;4938380;28;45527;-68
2021/09/19 08:55:38;;;;;;;;;12.50;11.50;;;;;24.76;43.20;100750.81;4956256;28;45569;-68
2021/09/19 08:58:03;;;;;;;;;13.00;11.25;;;;;24.49;43.88;100746.38;4955252;28;46158;-68
2021/09/19 09:00:37;;;;;;;;;16.25;13.75;;;;;24.25;44.64;100750.72;4955517;28;57192;-68
2021/09/19 09:03:12;;;;;;;;;12.25;11.00;;;;;24.02;45.31;100757.63;4938596;28;45651;-69
2021/09/19 09:05:37;;;;;;;;;11.75;11.75;;;;;23.83;45.38;100767.91;4939143;28;45428;-68
2021/09/19 09:08:03;;;;;;;;;13.00;12.25;;;;;23.66;45.56;100757.81;4955332;28;45470;-68
2021/09/19 09:10:44;;;;;;;;;13.25;13.00;;;;;23.55;45.83;100774.06;4938483;28;45546;-68
2021/09/19 09:13:10;;;;;;;;;12.00;12.00;;;;;23.45;46.74;100780.56;4955431;28;45705;-68
2021/09/19 09:15:41;;;;;;;;;13.00;13.00;;;;;23.34;46.92;100775.56;4955908;28;45728;-68
2021/09/19 09:18:07;;;;;;;;;13.00;12.50;;;;;23.10;47.23;100755.00;4955314;28;46078;-68
2021/09/19 09:20:53;;;;;;;;;15.50;12.25;;;;;23.19;46.74;100789.22;4955516;28;45496;-68
2021/09/19 09:23:29;;;;;;;;;13.50;12.25;;;;;23.14;46.99;100785.84;4955255;28;45661;-68
2021/09/19 09:26:17;;;;;;;;;14.50;11.50;;;;;23.01;47.32;100786.16;4955716;28;45722;-68
2021/09/19 09:28:42;;;;;;;;;14.75;12.00;;;;;22.99;47.62;100787.94;4876111;29;47102;-68
2021/09/19 09:31:08;;;;;;;;;12.50;10.50;;;;;22.94;47.86;100784.53;4876293;29;45426;-68
2021/09/19 09:33:34;;;;;;;;;14.50;11.25;;;;;22.94;47.92;100783.69;4876050;29;45985;-68
2021/09/19 09:36:08;;;;;;;;;13.50;12.00;;;;;22.96;48.25;100797.78;4876286;29;49979;-68
2021/09/19 09:38:33;;;;;;;;;15.50;13.50;;;;;22.96;48.14;100792.47;4861202;29;46192;-68
2021/09/19 09:40:59;;;;;;;;;12.50;11.50;;;;;22.93;48.46;100790.78;4876081;29;45390;-68
2021/09/19 09:43:24;;;;;;;;;17.25;13.75;;;;;22.93;47.86;100793.44;4875998;29;52397;-68
2021/09/19 09:45:50;;;;;;;;;16.50;15.25;;;;;22.91;48.20;100787.28;4875895;29;52212;-68
2021/09/19 09:48:30;;;;;;;;;16.00;13.50;;;;;22.92;48.34;100789.03;4859340;29;47251;-68
2021/09/19 09:51:00;;;;;;;;;12.50;11.00;;;;;22.96;48.56;100785.38;4861078;29;45880;-68
2021/09/19 09:53:25;;;;;;;;;14.00;12.50;;;;;23.02;48.24;100797.59;4876063;29;45821;-68
2021/09/19 09:55:52;;;;;;;;;15.25;14.00;;;;;23.07;48.12;100805.44;4876390;29;45914;-68
2021/09/19 09:58:18;;;;;;;;;14.00;14.00;;;;;23.00;48.17;100800.31;4875589;29;46422;-68
2021/09/19 10:00:44;;;;;;;;;15.00;12.50;;;;;22.92;48.19;100786.38;4875663;29;45718;-68
2021/09/19 10:03:09;;;;;;;;;17.25;14.00;;;;;22.98;48.09;100803.91;4875941;29;45769;-68
2021/09/19 10:05:35;;;;;;;;;13.50;12.00;;;;;22.95;48.33;100804.00;4910869;28;45715;-68
2021/09/19 10:08:00;;;;;;;;;14.25;11.75;;;;;22.96;48.46;100805.75;4954509;28;45743;-68
2021/09/19 10:10:28;;;;;;;;;15.75;13.00;;;;;22.93;48.20;100803.16;4954544;28;45695;-68
2021/09/19 10:12:54;;;;;;;;;11.50;11.50;;;;;22.90;48.13;100811.19;4954495;28;45455;-68
2021/09/19 10:15:19;;;;;;;;;13.25;13.25;;;;;22.88;48.21;100808.56;4954431;28;45901;-68
2021/09/19 10:17:45;;;;;;;;;13.25;12.00;;;;;22.83;48.38;100810.47;4936713;28;45893;-68
2021/09/19 10:20:14;;;;;;;;;13.75;12.50;;;;;22.84;48.22;100809.56;4954574;28;45740;-68
2021/09/19 10:22:50;;;;;;;;;16.25;12.50;;;;;22.84;48.55;100818.38;4937275;28;45401;-68
2021/09/19 10:25:25;;;;;;;;;11.00;11.00;;;;;22.81;48.83;100812.31;4937263;28;45585;-68
2021/09/19 10:27:50;;;;;;;;;15.25;13.00;;;;;22.84;48.61;100812.22;4954131;28;45632;-68
2021/09/19 10:30:18;;;;;;;;;14.00;11.75;;;;;22.88;48.42;100803.28;4954117;28;45435;-68
2021/09/19 10:32:44;;;;;;;;;12.00;12.00;;;;;22.91;48.39;100804.97;4954566;28;45479;-68
2021/09/19 10:35:16;;;;;;;;;11.75;10.00;;;;;22.94;48.54;100802.25;4937125;28;45738;-68
2021/09/19 10:38:00;;;;;;;;;18.25;15.00;;;;;22.93;48.41;100801.38;4953987;28;45704;-68
2021/09/19 10:40:38;;;;;;;;;13.25;12.00;;;;;22.95;48.13;100798.69;4937131;28;45520;-68
2021/09/19 10:43:20;;;;;;;;;17.00;14.25;;;;;22.94;48.75;100802.25;4954245;28;45719;-68
2021/09/19 10:45:50;;;;;;;;;13.75;13.00;;;;;22.92;48.62;100796.97;4936876;28;45417;-68
2021/09/19 10:48:26;;;;;;;;;14.75;11.75;;;;;22.93;48.85;100803.16;4953701;28;47135;-68
2021/09/19 10:51:03;;;;;;;;;15.25;13.00;;;;;22.94;48.85;100805.75;4938008;28;45369;-68
2021/09/19 10:53:29;;;;;;;;;14.00;13.50;;;;;22.94;48.71;100805.75;4954032;28;45740;-68
2021/09/19 10:55:56;;;;;;;;;17.00;13.75;;;;;22.93;49.24;100806.69;4954356;28;45374;-68
2021/09/19 10:58:45;;;;;;;;;15.00;13.50;;;;;22.84;48.85;100797.16;4953884;28;46563;-68
2021/09/19 11:01:11;;;;;;;;;15.50;13.25;;;;;22.86;49.00;100808.63;4953703;28;45907;-68
2021/09/19 11:03:38;;;;;;;;;14.25;12.75;;;;;22.88;48.88;100800.63;4954124;28;45389;-68
2021/09/19 11:06:03;;;;;;;;;14.25;14.25;;;;;22.93;48.92;100806.69;4921147;28;45450;-69
2021/09/19 11:08:37;;;;;;;;;15.50;14.00;;;;;23.01;48.95;100809.13;4953906;28;45696;-68
2021/09/19 11:11:07;;;;;;;;;12.75;12.75;;;;;23.01;49.01;100794.09;4953494;28;45340;-68